Time;durP1;ratioP1;P1;durP2;ratioP2;P2;SDS_P1;SDS_P2;PMS_P1;PMS_P2;Temp;Humidity;BMP_temperature;BMP_pressure;BME280_temperature;BME280_humidity;BME280_pressure;Samples;Min_cycle;Max_cycle;Signal;HPM_P1;HPM_P2
2022/08/12 00:42:59;;;;;;;5.03;2.25;;;17.60;70.30;;;;;;5072996;28;20043;-65
2022/08/12 00:45:24;;;;;;;7.50;2.60;;;17.70;70.10;;;;;;5066237;28;20025;-65
2022/08/12 00:47:52;;;;;;;5.35;2.70;;;17.60;70.20;;;;;;5073353;28;20012;-65
2022/08/12 00:50:23;;;;;;;4.88;2.45;;;17.60;70.50;;;;;;5073999;28;20032;-65
2022/08/12 00:52:51;;;;;;;8.13;2.60;;;17.60;70.50;;;;;;5070096;28;20345;-65
2022/08/12 00:55:18;;;;;;;6.50;2.40;;;17.50;70.60;;;;;;5064295;28;20468;-65
2022/08/12 00:57:47;;;;;;;6.88;2.30;;;17.50;70.70;;;;;;5067363;28;20354;-63
2022/08/12 01:00:22;;;;;;;4.72;2.70;;;17.50;70.70;;;;;;5056710;28;20025;-64
2022/08/12 01:02:52;;;;;;;4.90;2.83;;;17.50;71.00;;;;;;5069810;28;20108;-63
2022/08/12 01:13:43;;;;;;;5.65;2.40;;;17.20;72.40;;;;;;5072482;28;20040;-65
2022/08/12 01:16:09;;;;;;;6.10;2.40;;;17.20;72.60;;;;;;5066568;28;20029;-66
2022/08/12 01:18:38;;;;;;;5.22;2.75;;;17.20;72.70;;;;;;5059780;28;20033;-64
2022/08/12 01:21:32;;;;;;;5.82;2.50;;;17.20;72.80;;;;;;5068258;28;20338;-65
2022/08/12 01:24:42;;;;;;;6.32;2.55;;;17.20;72.70;;;;;;5066411;28;20487;-65
2022/08/12 01:27:13;;;;;;;6.65;2.58;;;17.20;72.90;;;;;;5065734;28;20139;-65
2022/08/12 01:29:42;;;;;;;5.53;2.70;;;17.20;72.80;;;;;;5060647;28;20031;-65
2022/08/12 01:32:14;;;;;;;5.13;2.63;;;17.40;72.60;;;;;;5069869;28;20428;-65
2022/08/12 01:35:03;;;;;;;5.65;2.72;;;17.40;72.70;;;;;;5069792;28;20024;-65
2022/08/12 01:37:32;;;;;;;5.85;2.65;;;17.30;72.70;;;;;;5071983;28;20333;-65
2022/08/12 01:40:00;;;;;;;7.75;2.63;;;17.30;72.80;;;;;;5065164;28;20032;-65
2022/08/12 01:42:30;;;;;;;7.35;2.63;;;17.30;72.80;;;;;;5065156;28;20111;-65
2022/08/12 01:44:57;;;;;;;5.65;2.70;;;17.30;73.00;;;;;;5060461;28;20602;-66
2022/08/12 01:47:50;;;;;;;6.78;2.78;;;17.30;72.80;;;;;;5065598;28;20037;-65
2022/08/12 01:50:49;;;;;;;5.75;2.83;;;17.30;73.00;;;;;;5057828;28;20017;-65
2022/08/12 01:53:19;;;;;;;4.80;2.53;;;17.20;73.20;;;;;;5065232;28;20028;-65
2022/08/12 01:55:46;;;;;;;6.82;2.95;;;17.20;73.10;;;;;;5061997;28;20021;-65
2022/08/12 01:59:44;;;;;;;7.57;3.22;;;17.20;73.30;;;;;;5067624;28;20039;-65
2022/08/12 02:01:15;;;;;;;7.03;2.63;;;17.20;73.30;;;;;;5067483;28;20119;-65
2022/08/12 02:13:39;;;;;;;5.32;2.78;;;16.90;74.20;;;;;;5073190;28;20040;-65
2022/08/12 02:16:15;;;;;;;5.10;2.78;;;16.90;74.10;;;;;;5022579;28;20069;-66
2022/08/12 02:19:05;;;;;;;5.40;2.63;;;16.90;74.20;;;;;;5021569;28;20029;-66
2022/08/12 02:21:57;;;;;;;5.88;2.80;;;16.80;74.50;;;;;;5053353;28;20334;-66
2022/08/12 02:24:25;;;;;;;4.30;2.53;;;16.80;74.50;;;;;;5069854;28;20031;-66
2022/08/12 02:26:53;;;;;;;5.20;2.92;;;16.80;74.50;;;;;;5063776;28;20111;-66
2022/08/12 02:29:19;;;;;;;11.32;2.90;;;16.80;74.60;;;;;;5067738;28;20017;-66
2022/08/12 02:31:47;;;;;;;5.80;2.60;;;16.70;74.90;;;;;;5070429;28;20021;-66
2022/08/12 02:34:15;;;;;;;5.88;2.90;;;16.70;75.30;;;;;;5066475;28;20036;-66
2022/08/12 02:36:44;;;;;;;7.10;3.22;;;16.70;75.10;;;;;;5067724;28;20079;-66
2022/08/12 02:39:14;;;;;;;5.13;2.90;;;16.70;75.30;;;;;;5069276;28;20323;-65
2022/08/12 02:41:45;;;;;;;7.55;3.28;;;16.60;75.50;;;;;;5069894;28;20024;-65
2022/08/12 02:44:14;;;;;;;6.15;2.80;;;16.60;75.60;;;;;;5067522;28;20113;-65
2022/08/12 02:46:47;;;;;;;5.90;2.50;;;16.50;75.90;;;;;;5065355;28;20032;-66
2022/08/12 02:49:30;;;;;;;6.07;2.97;;;16.50;76.10;;;;;;5068604;28;20028;-66
2022/08/12 02:51:58;;;;;;;6.53;3.00;;;16.50;76.40;;;;;;5073796;28;20029;-66
2022/08/12 02:54:24;;;;;;;7.07;3.00;;;16.40;76.90;;;;;;5068141;28;20028;-64
2022/08/12 02:56:51;;;;;;;5.38;3.00;;;16.30;76.80;;;;;;5071369;28;20024;-65
2022/08/12 02:59:20;;;;;;;5.28;2.95;;;16.20;77.20;;;;;;5073385;28;20105;-66
2022/08/12 03:01:52;;;;;;;4.45;2.60;;;16.20;77.50;;;;;;5066203;28;20056;-65
2022/08/12 03:04:26;;;;;;;6.10;2.90;;;16.20;77.60;;;;;;5059303;28;20017;-66
2022/08/12 03:07:08;;;;;;;7.93;2.95;;;16.20;77.70;;;;;;5064936;28;20025;-65
2022/08/12 03:09:48;;;;;;;6.65;3.25;;;16.20;77.80;;;;;;5071028;28;20068;-66
2022/08/12 03:12:16;;;;;;;5.35;2.90;;;16.20;77.70;;;;;;5074170;28;20021;-66
2022/08/12 03:14:43;;;;;;;5.82;2.55;;;16.20;77.70;;;;;;5078820;28;20028;-65
2022/08/12 03:17:42;;;;;;;5.20;3.25;;;16.20;77.70;;;;;;5073174;28;20037;-66
2022/08/12 03:20:15;;;;;;;7.25;3.15;;;16.20;77.80;;;;;;5062470;28;20024;-66
2022/08/12 03:22:42;;;;;;;10.88;3.75;;;16.10;78.00;;;;;;5066169;28;20024;-65
2022/08/12 03:25:26;;;;;;;6.95;2.90;;;16.10;78.20;;;;;;5063694;28;20207;-65
2022/08/12 03:27:57;;;;;;;5.53;3.10;;;16.10;78.30;;;;;;5068927;28;20025;-66
2022/08/12 03:30:27;;;;;;;5.63;3.17;;;16.10;78.10;;;;;;5063039;28;20021;-66
2022/08/12 03:32:55;;;;;;;7.82;3.10;;;16.10;78.20;;;;;;5073249;28;20794;-66
2022/08/12 03:35:26;;;;;;;8.05;3.83;;;16.20;78.30;;;;;;5074093;28;20055;-66
2022/08/12 03:37:57;;;;;;;6.07;3.00;;;16.20;78.10;;;;;;5072700;28;20013;-66
2022/08/12 04:02:45;;;;;;;6.18;3.13;;;15.70;79.90;;;;;;5076626;28;20148;-65
2022/08/12 04:05:11;;;;;;;7.05;3.58;;;15.80;80.00;;;;;;5070837;28;20091;-66
2022/08/12 04:07:39;;;;;;;7.25;3.35;;;15.80;79.90;;;;;;5058082;28;20032;-66
2022/08/12 04:10:05;;;;;;;5.43;3.25;;;15.70;80.00;;;;;;5069313;28;20040;-65
2022/08/12 04:15:18;;;;;;;8.40;3.45;;;15.70;80.20;;;;;;5071467;28;20036;-65
2022/08/12 04:17:46;;;;;;;8.32;3.33;;;15.60;80.50;;;;;;5068540;28;20111;-65
2022/08/12 04:20:17;;;;;;;6.28;3.03;;;15.70;80.40;;;;;;5068787;28;20029;-65
2022/08/12 04:22:44;;;;;;;7.57;3.00;;;15.70;80.30;;;;;;5069784;28;20028;-65
2022/08/12 04:25:11;;;;;;;6.28;2.90;;;15.70;80.20;;;;;;5060814;28;20033;-66
2022/08/12 04:27:38;;;;;;;11.02;3.72;;;15.70;80.50;;;;;;5065455;28;20037;-64
2022/08/12 04:30:09;;;;;;;7.40;3.97;;;15.60;80.60;;;;;;5065591;28;20459;-66
2022/08/12 04:32:35;;;;;;;6.63;3.30;;;15.60;80.40;;;;;;5067746;28;20020;-65
2022/08/12 04:35:02;;;;;;;8.65;3.30;;;15.60;80.60;;;;;;5068014;28;20327;-66
2022/08/12 04:37:28;;;;;;;7.57;3.28;;;15.60;81.10;;;;;;5065015;28;20339;-66
2022/08/12 04:39:56;;;;;;;6.78;3.20;;;15.50;81.10;;;;;;5060421;28;20111;-66
2022/08/12 04:42:24;;;;;;;6.47;3.10;;;15.50;81.30;;;;;;5060838;28;20017;-66
2022/08/12 04:44:50;;;;;;;6.35;3.22;;;15.50;81.20;;;;;;5062999;28;20035;-65
2022/08/12 04:47:16;;;;;;;6.30;3.35;;;15.50;81.20;;;;;;5058686;28;20032;-65
2022/08/12 04:49:44;;;;;;;5.47;3.00;;;15.50;81.10;;;;;;5062779;28;20024;-66
2022/08/12 04:52:10;;;;;;;4.63;3.08;;;15.40;81.40;;;;;;5059943;28;20025;-66
2022/08/12 04:54:36;;;;;;;5.60;3.20;;;15.30;81.70;;;;;;5076144;28;20024;-66
2022/08/12 04:57:02;;;;;;;5.32;3.25;;;15.20;82.30;;;;;;5071778;28;20040;-66
2022/08/12 04:59:30;;;;;;;5.68;2.75;;;15.20;82.40;;;;;;5072936;28;20023;-65
2022/08/12 05:01:56;;;;;;;9.50;3.20;;;15.20;82.10;;;;;;5063741;28;20035;-66
2022/08/12 05:04:25;;;;;;;5.88;3.33;;;15.20;82.60;;;;;;5068141;28;20024;-66
2022/08/12 05:06:51;;;;;;;5.47;2.88;;;15.00;82.80;;;;;;5064940;28;20028;-66
2022/08/12 05:09:17;;;;;;;7.00;2.80;;;15.00;83.50;;;;;;5061936;28;20417;-65
2022/08/12 05:11:48;;;;;;;7.82;3.75;;;14.90;84.30;;;;;;5063294;28;20032;-66
2022/08/12 05:14:15;;;;;;;5.10;3.45;;;14.70;84.60;;;;;;5065644;28;20016;-66
2022/08/12 05:16:40;;;;;;;7.28;3.70;;;14.50;85.30;;;;;;5068889;28;20021;-65
2022/08/12 05:19:06;;;;;;;7.07;3.40;;;14.40;85.80;;;;;;5071074;28;20032;-65
2022/08/12 05:21:32;;;;;;;5.50;3.83;;;14.30;86.10;;;;;;5070733;28;20059;-66
2022/08/12 05:23:59;;;;;;;5.28;3.30;;;14.20;86.40;;;;;;5065497;28;20449;-66
2022/08/12 05:26:25;;;;;;;6.13;3.33;;;14.10;87.30;;;;;;5061211;28;20048;-66
2022/08/12 05:28:52;;;;;;;5.35;3.17;;;14.10;87.60;;;;;;5068474;28;20028;-66
2022/08/12 05:31:18;;;;;;;6.60;3.15;;;14.20;87.70;;;;;;5060096;28;20044;-65
2022/08/12 05:33:44;;;;;;;6.50;3.30;;;14.20;87.50;;;;;;5048045;28;20861;-66
2022/08/12 05:36:12;;;;;;;5.68;3.60;;;14.30;87.40;;;;;;5062456;28;20047;-66
2022/08/12 05:38:57;;;;;;;5.75;3.58;;;14.30;87.30;;;;;;5054697;28;20603;-66
2022/08/12 05:41:28;;;;;;;6.45;3.22;;;14.40;87.70;;;;;;5057131;28;20024;-66
2022/08/12 05:44:00;;;;;;;6.72;3.50;;;14.50;87.80;;;;;;5066522;28;20041;-65
2022/08/12 05:46:28;;;;;;;6.25;2.92;;;14.60;87.20;;;;;;5047640;28;20033;-66
2022/08/12 05:48:55;;;;;;;5.07;3.10;;;14.80;86.60;;;;;;5047247;28;20032;-65
2022/08/12 05:51:23;;;;;;;6.45;3.40;;;15.00;86.20;;;;;;5057786;28;20462;-66
2022/08/12 05:53:54;;;;;;;6.50;3.22;;;15.10;86.30;;;;;;5055253;28;20673;-66
2022/08/12 05:56:22;;;;;;;7.75;3.35;;;15.20;86.40;;;;;;5058659;28;20364;-66
2022/08/12 05:58:49;;;;;;;5.28;3.22;;;15.30;86.10;;;;;;5068377;28;20094;-66
2022/08/12 06:01:15;;;;;;;5.82;3.33;;;15.50;85.60;;;;;;5062519;28;20417;-65
2022/08/12 06:03:41;;;;;;;5.28;3.15;;;15.60;84.70;;;;;;5050021;28;20027;-65
2022/08/12 06:06:07;;;;;;;6.07;3.28;;;15.80;84.10;;;;;;5055902;28;20960;-66
2022/08/12 06:08:35;;;;;;;7.20;3.00;;;15.90;83.30;;;;;;5052426;28;20052;-65
2022/08/12 06:11:03;;;;;;;5.20;3.35;;;16.10;82.60;;;;;;5051766;28;20083;-65
2022/08/12 06:13:29;;;;;;;8.35;3.17;;;16.30;81.40;;;;;;5052376;28;20036;-66
2022/08/12 06:15:58;;;;;;;5.05;3.20;;;16.50;80.60;;;;;;5051162;28;20039;-65
2022/08/12 06:18:23;;;;;;;8.40;3.00;;;16.60;80.40;;;;;;5052401;28;20075;-65
2022/08/12 06:20:51;;;;;;;5.72;3.30;;;16.70;80.30;;;;;;5057888;28;20107;-66
2022/08/12 06:23:17;;;;;;;6.03;3.50;;;16.90;79.60;;;;;;5059842;28;20025;-66
2022/08/12 06:25:42;;;;;;;5.75;3.10;;;17.00;79.20;;;;;;5052147;28;20590;-66
2022/08/12 06:28:16;;;;;;;6.40;3.50;;;17.10;78.70;;;;;;5052078;28;20039;-65
2022/08/12 06:30:43;;;;;;;6.07;3.47;;;17.20;78.40;;;;;;5059487;28;20478;-66
2022/08/12 06:33:09;;;;;;;8.70;3.47;;;17.30;78.30;;;;;;5050772;28;20032;-65
2022/08/12 06:35:35;;;;;;;5.88;3.53;;;17.40;78.20;;;;;;5055572;28;20486;-66
2022/08/12 06:38:02;;;;;;;8.43;3.40;;;17.50;78.20;;;;;;5067086;28;20166;-65
2022/08/12 06:43:15;;;;;;;6.57;3.50;;;17.60;78.50;;;;;;5069518;28;20085;-66
2022/08/12 06:45:44;;;;;;;8.90;3.42;;;17.60;78.70;;;;;;5059517;28;20130;-65
2022/08/12 06:48:13;;;;;;;9.07;3.25;;;17.60;79.00;;;;;;5051225;28;20048;-64
2022/08/12 06:50:41;;;;;;;7.28;3.35;;;17.70;79.30;;;;;;5051824;28;20021;-65
2022/08/12 06:53:09;;;;;;;7.60;2.97;;;17.80;79.40;;;;;;5051013;28;20029;-64
2022/08/12 06:55:35;;;;;;;5.20;3.20;;;18.00;78.90;;;;;;5055674;28;20397;-65
2022/08/12 06:58:03;;;;;;;8.35;3.03;;;18.10;78.60;;;;;;5055419;28;20041;-65
2022/08/12 07:00:32;;;;;;;9.02;3.60;;;18.20;78.40;;;;;;5053659;28;20024;-65
2022/08/12 07:02:58;;;;;;;7.65;4.18;;;18.20;78.20;;;;;;5053858;28;20043;-65
2022/08/12 07:05:28;;;;;;;6.63;3.40;;;18.30;77.90;;;;;;5059232;28;20040;-65
2022/08/12 07:08:02;;;;;;;9.82;3.60;;;18.40;77.60;;;;;;5065504;28;20047;-66
2022/08/12 07:10:46;;;;;;;8.98;3.22;;;18.60;77.60;;;;;;5061514;28;20033;-65
2022/08/12 07:13:11;;;;;;;5.07;3.20;;;18.80;77.00;;;;;;5068885;28;20449;-65
2022/08/12 07:15:42;;;;;;;6.47;2.83;;;19.00;76.80;;;;;;5076432;28;20021;-66
2022/08/12 07:18:16;;;;;;;5.18;2.97;;;19.20;76.10;;;;;;5077829;28;20033;-65
2022/08/12 07:20:43;;;;;;;7.68;3.20;;;19.30;76.30;;;;;;5075906;28;20473;-65
2022/08/12 07:23:10;;;;;;;6.57;2.50;;;19.50;74.60;;;;;;5051198;28;20115;-66
2022/08/12 07:25:38;;;;;;;6.93;2.78;;;19.70;69.70;;;;;;5053503;28;20086;-65
2022/08/12 07:28:22;;;;;;;7.47;3.08;;;20.10;69.30;;;;;;5063295;28;20043;-65
2022/08/12 07:30:52;;;;;;;5.50;3.00;;;20.30;72.40;;;;;;5076980;28;20032;-65
2022/08/12 07:33:21;;;;;;;5.40;2.60;;;20.30;71.40;;;;;;5051260;28;20035;-64
2022/08/12 07:35:53;;;;;;;5.60;2.88;;;20.50;66.90;;;;;;5061768;28;20024;-65
2022/08/12 07:38:25;;;;;;;5.38;3.08;;;20.60;70.40;;;;;;5055564;28;20043;-65
2022/08/12 07:41:12;;;;;;;6.93;2.80;;;20.70;70.80;;;;;;5061858;28;20020;-65
2022/08/12 07:43:41;;;;;;;6.38;2.60;;;20.80;67.70;;;;;;5067215;28;20032;-66
2022/08/12 07:46:11;;;;;;;5.15;2.75;;;21.00;69.30;;;;;;5061817;28;20037;-65
2022/08/12 07:48:38;;;;;;;5.35;2.58;;;21.10;70.60;;;;;;5051508;28;20024;-65
2022/08/12 07:51:04;;;;;;;6.78;2.90;;;21.60;66.90;;;;;;5051685;28;20060;-65
2022/08/12 07:53:30;;;;;;;6.85;2.22;;;22.30;68.10;;;;;;5054826;28;21784;-66
2022/08/12 07:55:56;;;;;;;9.15;2.30;;;23.60;61.30;;;;;;5060038;28;20457;-66
2022/08/12 07:58:25;;;;;;;9.73;2.50;;;24.50;59.40;;;;;;5052047;28;20047;-65
2022/08/12 08:00:53;;;;;;;6.13;2.55;;;25.60;56.20;;;;;;5053290;28;20165;-66
2022/08/12 08:03:19;;;;;;;9.73;2.90;;;26.40;58.70;;;;;;5058646;28;20040;-65
2022/08/12 08:05:48;;;;;;;5.70;2.42;;;26.70;58.10;;;;;;5063142;28;20036;-66
2022/08/12 08:08:23;;;;;;;6.30;2.47;;;27.00;57.60;;;;;;5070958;28;20047;-66
2022/08/12 08:10:51;;;;;;;6.63;2.30;;;27.50;57.00;;;;;;5051887;28;20319;-65
2022/08/12 08:13:19;;;;;;;6.05;2.35;;;27.50;56.40;;;;;;5051384;28;20028;-64
2022/08/12 08:15:45;;;;;;;5.20;2.30;;;27.50;56.40;;;;;;5060677;28;20056;-65
2022/08/12 08:18:15;;;;;;;8.35;2.42;;;27.40;55.70;;;;;;5059084;28;20413;-65
2022/08/12 08:20:44;;;;;;;8.35;2.30;;;27.80;54.20;;;;;;5053168;28;20044;-65
2022/08/12 08:23:13;;;;;;;5.20;2.28;;;27.70;54.40;;;;;;5054854;28;20056;-65
2022/08/12 08:25:40;;;;;;;5.53;2.05;;;28.30;54.10;;;;;;5058277;28;20056;-65
2022/08/12 08:28:11;;;;;;;4.93;1.90;;;28.40;53.70;;;;;;5050485;28;20033;-65
2022/08/12 08:30:41;;;;;;;3.20;1.60;;;28.20;49.60;;;;;;5069018;28;20044;-65
2022/08/12 08:33:08;;;;;;;5.90;1.90;;;28.90;48.70;;;;;;5060534;28;20040;-64
2022/08/12 08:35:34;;;;;;;4.25;1.80;;;29.10;48.00;;;;;;5055036;28;20029;-65
2022/08/12 08:38:12;;;;;;;3.55;1.80;;;29.00;47.50;;;;;;5067000;28;20059;-64
2022/08/12 08:43:27;;;;;;;5.07;2.13;;;28.70;48.00;;;;;;5069294;28;20121;-65
2022/08/12 08:45:56;;;;;;;4.95;1.85;;;28.10;49.90;;;;;;5068646;28;20028;-67
2022/08/12 08:48:23;;;;;;;3.53;1.77;;;28.30;48.90;;;;;;5059270;28;20036;-65
2022/08/12 08:50:49;;;;;;;6.95;1.90;;;28.40;48.30;;;;;;5059407;28;20035;-64
2022/08/12 08:53:15;;;;;;;5.05;1.70;;;28.70;47.80;;;;;;5052635;28;20543;-64
2022/08/12 08:55:41;;;;;;;5.25;1.52;;;28.40;47.20;;;;;;5059843;28;20099;-65
2022/08/12 08:58:08;;;;;;;4.72;1.60;;;28.60;48.30;;;;;;5051589;28;20029;-65
2022/08/12 09:00:38;;;;;;;5.00;1.98;;;28.90;48.10;;;;;;5057214;28;20180;-65
2022/08/12 09:03:04;;;;;;;6.18;1.77;;;29.10;46.70;;;;;;5051506;28;20687;-65
2022/08/12 09:05:30;;;;;;;3.90;1.65;;;28.90;46.60;;;;;;5061253;28;20079;-65
2022/08/12 09:07:59;;;;;;;3.80;1.67;;;28.80;46.70;;;;;;5063364;28;20123;-65
2022/08/12 09:10:25;;;;;;;4.55;1.80;;;28.70;47.50;;;;;;5067843;28;20035;-66
2022/08/12 09:15:37;;;;;;;5.57;1.70;;;29.30;46.60;;;;;;5056009;28;20040;-65
2022/08/12 09:18:05;;;;;;;7.88;1.63;;;29.40;46.90;;;;;;5065160;28;20177;-65
2022/08/12 09:20:32;;;;;;;6.30;1.90;;;29.30;47.10;;;;;;5074099;28;20029;-65
2022/08/12 09:23:00;;;;;;;4.63;1.80;;;29.50;46.70;;;;;;5070580;28;20024;-65
2022/08/12 09:25:30;;;;;;;3.70;1.70;;;29.90;46.10;;;;;;5073989;28;20037;-65
2022/08/12 09:27:57;;;;;;;4.85;1.98;;;30.30;45.60;;;;;;5075686;28;20393;-65
2022/08/12 09:30:24;;;;;;;4.68;1.90;;;30.60;45.20;;;;;;5072870;28;20036;-65
2022/08/12 09:32:51;;;;;;;4.93;1.88;;;30.60;45.00;;;;;;5064690;28;20017;-66
2022/08/12 09:35:18;;;;;;;6.07;1.98;;;30.00;45.80;;;;;;5073679;28;20025;-66
2022/08/12 09:37:45;;;;;;;6.53;1.83;;;29.40;46.70;;;;;;5079001;28;20154;-66
2022/08/12 09:40:12;;;;;;;4.93;1.90;;;29.60;46.10;;;;;;5077048;28;20032;-65
2022/08/12 09:45:21;;;;;;;;;;;30.00;46.60;;;;;;5070363;28;20032;-65
2022/08/12 09:47:52;;;;;;;6.43;1.75;;;30.30;45.80;;;;;;5062286;28;19924;-65
2022/08/12 09:50:18;;;;;;;4.53;1.67;;;30.60;45.00;;;;;;5065260;28;20299;-64
2022/08/12 09:52:45;;;;;;;5.60;1.88;;;31.00;45.00;;;;;;5074602;28;20017;-66
2022/08/12 09:55:15;;;;;;;3.95;1.55;;;31.00;44.70;;;;;;5068627;28;20025;-66
2022/08/12 09:57:43;;;;;;;4.70;1.60;;;30.80;45.30;;;;;;5074004;28;20295;-64
2022/08/12 10:00:18;;;;;;;4.00;1.55;;;31.20;44.10;;;;;;5077034;28;20067;-65
2022/08/12 10:03:06;;;;;;;4.45;1.50;;;31.50;43.90;;;;;;5065308;28;20024;-65
2022/08/12 10:05:35;;;;;;;4.88;1.75;;;31.20;44.40;;;;;;5073718;28;20028;-65
2022/08/12 10:08:03;;;;;;;5.60;1.60;;;31.00;43.90;;;;;;5070797;28;20040;-66
2022/08/12 10:10:29;;;;;;;5.55;1.60;;;31.40;43.40;;;;;;5068122;28;20032;-66
2022/08/12 10:15:45;;;;;;;6.15;1.77;;;32.20;42.80;;;;;;5075606;28;20455;-65
2022/08/12 10:18:11;;;;;;;3.72;1.50;;;31.60;43.20;;;;;;5080417;28;20028;-66
2022/08/12 10:20:38;;;;;;;5.70;1.73;;;31.60;43.60;;;;;;5070503;28;20024;-66
2022/08/12 10:23:04;;;;;;;3.63;1.45;;;31.90;42.10;;;;;;5077485;28;20042;-66
2022/08/12 10:31:13;;;;;;;4.40;1.40;;;30.90;42.70;;;;;;5053719;28;20037;-66
2022/08/12 10:33:39;;;;;;;4.75;1.60;;;30.80;43.40;;;;;;5059036;28;20028;-66
2022/08/12 10:36:05;;;;;;;5.95;1.50;;;31.20;42.50;;;;;;5078997;28;20024;-66
2022/08/12 10:38:30;;;;;;;3.10;1.45;;;31.50;41.70;;;;;;5078554;28;20100;-66
2022/08/12 10:43:42;;;;;;;4.20;1.40;;;31.00;43.40;;;;;;5064362;28;20038;-66
2022/08/12 10:46:17;;;;;;;4.22;1.55;;;31.00;43.50;;;;;;5064285;28;20033;-66
2022/08/12 10:48:47;;;;;;;4.10;1.60;;;30.90;43.10;;;;;;5069690;28;20294;-66
2022/08/12 10:51:19;;;;;;;7.82;1.92;;;30.50;43.50;;;;;;5074257;28;20033;-65
2022/08/12 10:53:47;;;;;;;7.25;1.42;;;30.50;43.10;;;;;;5066622;28;20365;-66
2022/08/12 10:56:17;;;;;;;4.75;1.77;;;30.60;43.10;;;;;;5061280;28;20107;-66
2022/08/12 10:58:43;;;;;;;3.92;1.42;;;30.60;43.90;;;;;;5072644;28;20020;-65
2022/08/12 11:01:09;;;;;;;6.68;1.58;;;30.90;43.60;;;;;;5075097;28;20082;-65
2022/08/12 11:03:36;;;;;;;5.43;1.50;;;31.30;42.30;;;;;;5078372;28;20028;-65
2022/08/12 11:06:09;;;;;;;5.90;1.60;;;31.10;43.00;;;;;;5084159;28;20412;-65
2022/08/12 11:08:38;;;;;;;4.80;1.58;;;30.70;42.20;;;;;;5079279;28;20057;-65
2022/08/12 11:11:06;;;;;;;3.50;1.42;;;30.60;42.90;;;;;;5067872;28;20431;-66
2022/08/12 11:13:35;;;;;;;3.97;1.60;;;30.80;42.70;;;;;;5069986;28;20028;-66
2022/08/12 11:16:01;;;;;;;3.90;1.33;;;31.20;43.00;;;;;;5071676;28;20096;-65
2022/08/12 11:18:28;;;;;;;7.13;1.55;;;31.30;42.00;;;;;;5063480;28;20036;-66
2022/08/12 11:20:54;;;;;;;9.75;1.67;;;31.10;43.70;;;;;;5072208;28;20028;-65
2022/08/12 11:23:20;;;;;;;7.82;1.60;;;31.40;42.80;;;;;;5063220;28;20440;-65
2022/08/12 11:25:47;;;;;;;6.60;1.40;;;31.70;41.60;;;;;;5070510;28;20087;-65
2022/08/12 11:28:14;;;;;;;7.43;1.88;;;31.60;41.50;;;;;;5077997;28;20421;-66
2022/08/12 11:30:40;;;;;;;5.30;1.50;;;31.70;42.70;;;;;;5075633;28;20029;-65
2022/08/12 11:33:06;;;;;;;7.47;1.70;;;31.60;42.70;;;;;;5080382;28;20096;-65
2022/08/12 11:35:35;;;;;;;2.78;1.40;;;31.80;41.20;;;;;;5071111;28;20033;-66
2022/08/12 11:38:01;;;;;;;7.75;1.60;;;31.40;42.80;;;;;;5068311;28;20374;-66
2022/08/12 11:40:28;;;;;;;5.15;1.60;;;31.50;42.10;;;;;;5078776;28;20051;-66
2022/08/12 11:42:53;;;;;;;6.50;1.55;;;31.80;42.30;;;;;;5076664;28;20028;-67
2022/08/12 11:45:19;;;;;;;4.35;1.70;;;31.70;42.20;;;;;;5075627;28;20036;-66
2022/08/12 11:47:45;;;;;;;3.53;1.40;;;31.60;41.90;;;;;;5057470;28;20041;-66
2022/08/12 11:50:11;;;;;;;5.82;1.70;;;31.40;41.40;;;;;;5072560;28;20029;-66
2022/08/12 11:52:37;;;;;;;4.47;1.90;;;30.30;43.00;;;;;;5074757;28;20063;-66
2022/08/12 11:55:03;;;;;;;5.75;1.60;;;30.30;43.30;;;;;;5074525;28;20546;-66
2022/08/12 11:57:30;;;;;;;4.95;1.60;;;30.70;43.20;;;;;;5077371;28;20153;-66
2022/08/12 11:59:58;;;;;;;4.10;1.60;;;30.90;43.00;;;;;;5073204;28;20116;-66
2022/08/12 12:02:24;;;;;;;4.30;1.50;;;31.00;42.20;;;;;;5068335;28;20036;-66
2022/08/12 12:04:49;;;;;;;5.38;1.70;;;31.00;41.90;;;;;;5077270;28;20032;-67
2022/08/12 12:07:15;;;;;;;6.32;1.67;;;30.30;42.50;;;;;;5077687;28;20028;-66
2022/08/12 12:09:41;;;;;;;5.05;1.63;;;29.60;43.50;;;;;;5069727;28;20334;-66
2022/08/12 12:12:07;;;;;;;6.82;1.80;;;29.50;44.60;;;;;;5072360;28;20091;-67
2022/08/12 12:14:32;;;;;;;6.18;1.88;;;30.00;44.30;;;;;;5059165;28;20429;-66
2022/08/12 12:16:58;;;;;;;5.20;1.90;;;30.20;43.70;;;;;;5072781;28;20417;-66
2022/08/12 12:19:24;;;;;;;6.65;1.52;;;30.60;44.20;;;;;;5056735;28;20043;-66
2022/08/12 12:21:49;;;;;;;3.42;1.80;;;31.20;42.40;;;;;;5070588;28;20107;-66
2022/08/12 12:24:18;;;;;;;3.38;1.52;;;31.40;42.70;;;;;;5063961;28;20081;-67
2022/08/12 12:26:44;;;;;;;7.10;1.60;;;31.70;42.30;;;;;;5074060;28;20032;-66
2022/08/12 12:29:10;;;;;;;5.13;1.48;;;32.00;42.00;;;;;;5071076;28;20030;-66
2022/08/12 12:31:35;;;;;;;6.25;1.58;;;31.50;42.90;;;;;;5070430;28;20030;-66
2022/08/12 12:34:01;;;;;;;5.05;1.67;;;31.20;42.30;;;;;;5062308;28;20092;-65
2022/08/12 12:36:27;;;;;;;3.80;1.55;;;31.50;42.20;;;;;;5069171;28;20028;-64
2022/08/12 12:38:52;;;;;;;5.40;1.55;;;31.90;43.10;;;;;;5075948;28;20032;-64
2022/08/12 12:41:18;;;;;;;5.35;1.45;;;32.30;42.30;;;;;;5075195;28;20440;-64
2022/08/12 12:43:43;;;;;;;4.43;1.40;;;32.70;41.30;;;;;;5067430;28;20028;-64
2022/08/12 12:46:09;;;;;;;3.17;1.42;;;33.20;41.00;;;;;;5066233;28;20439;-65
2022/08/12 12:48:35;;;;;;;4.10;1.85;;;32.80;40.50;;;;;;5059573;28;20063;-66
2022/08/12 12:51:16;;;;;;;3.08;1.45;;;31.50;41.50;;;;;;5058127;28;20025;-66
2022/08/12 12:53:48;;;;;;;3.00;1.30;;;30.60;43.50;;;;;;5062857;28;20406;-66
2022/08/12 12:56:22;;;;;;;3.47;1.63;;;29.70;44.10;;;;;;5069331;28;20032;-66
2022/08/12 12:58:50;;;;;;;3.60;1.50;;;30.30;44.90;;;;;;5067320;28;20037;-67
2022/08/12 13:01:24;;;;;;;5.30;1.42;;;30.90;42.10;;;;;;5061089;28;20036;-66
2022/08/12 13:03:55;;;;;;;5.25;1.50;;;31.30;43.40;;;;;;5064467;28;20362;-66
2022/08/12 13:06:24;;;;;;;3.45;1.40;;;32.10;41.70;;;;;;5076045;28;20322;-66
2022/08/12 13:08:53;;;;;;;7.30;1.65;;;32.60;41.60;;;;;;5063892;28;20122;-66
2022/08/12 13:11:23;;;;;;;4.47;1.60;;;32.50;41.90;;;;;;5066080;28;20028;-66
2022/08/12 13:13:53;;;;;;;7.22;1.50;;;32.20;41.20;;;;;;5070504;28;20159;-66
2022/08/12 13:16:20;;;;;;;5.97;1.90;;;31.20;42.20;;;;;;5076759;28;20386;-66
2022/08/12 13:18:51;;;;;;;9.65;2.03;;;29.90;43.70;;;;;;5064994;28;20092;-66
2022/08/12 13:21:17;;;;;;;5.07;1.80;;;28.80;45.40;;;;;;5067731;28;20058;-66
2022/08/12 13:23:47;;;;;;;6.15;1.75;;;28.80;46.40;;;;;;5078558;28;20024;-66
2022/08/12 13:26:18;;;;;;;4.95;1.67;;;29.90;44.90;;;;;;5070805;28;20024;-66
2022/08/12 13:28:46;;;;;;;5.95;1.40;;;30.70;43.70;;;;;;5074471;28;20029;-66
2022/08/12 13:31:15;;;;;;;5.63;1.77;;;31.30;43.40;;;;;;5072092;28;20095;-66
2022/08/12 13:33:41;;;;;;;3.60;1.45;;;31.90;41.90;;;;;;5075036;28;20306;-66
2022/08/12 13:36:09;;;;;;;6.28;1.60;;;31.50;42.20;;;;;;5075026;28;20036;-66
2022/08/12 13:38:39;;;;;;;3.85;1.50;;;30.80;44.60;;;;;;5075824;28;20300;-66
2022/08/12 13:41:15;;;;;;;4.55;1.50;;;30.90;43.50;;;;;;5074559;28;20024;-66
2022/08/12 13:43:41;;;;;;;4.97;1.17;;;31.70;42.40;;;;;;5074713;28;20116;-66
2022/08/12 13:46:08;;;;;;;5.30;1.40;;;32.60;40.80;;;;;;5066174;28;20115;-66
2022/08/12 13:48:35;;;;;;;3.95;1.40;;;32.80;41.00;;;;;;5070215;28;20029;-66
2022/08/12 13:51:01;;;;;;;4.47;1.27;;;33.30;40.10;;;;;;5073035;28;20025;-66
2022/08/12 13:53:27;;;;;;;4.78;1.48;;;33.80;39.80;;;;;;5074342;28;20503;-67
2022/08/12 13:55:53;;;;;;;4.03;1.40;;;33.30;40.30;;;;;;5074298;28;20104;-67
2022/08/12 13:58:20;;;;;;;4.22;1.25;;;33.30;40.70;;;;;;5075276;28;20020;-66
2022/08/12 14:00:49;;;;;;;6.55;1.60;;;32.80;40.90;;;;;;5075635;28;20052;-66
2022/08/12 14:03:20;;;;;;;6.00;1.38;;;33.00;41.00;;;;;;5075415;28;20414;-66
2022/08/12 14:05:47;;;;;;;3.97;1.48;;;32.90;40.40;;;;;;5073751;28;20032;-66
2022/08/12 14:08:14;;;;;;;4.50;1.35;;;33.60;40.10;;;;;;5075189;28;20080;-66
2022/08/12 14:10:48;;;;;;;5.07;1.30;;;32.60;40.00;;;;;;5074097;28;20420;-66
2022/08/12 14:13:21;;;;;;;6.05;1.40;;;32.20;41.50;;;;;;5075267;28;20021;-66
2022/08/12 14:15:52;;;;;;;3.13;1.35;;;32.50;40.00;;;;;;5075451;28;20325;-66
2022/08/12 14:18:20;;;;;;;3.08;1.50;;;32.80;41.00;;;;;;5075252;28;20410;-66
2022/08/12 14:20:49;;;;;;;2.75;1.20;;;33.40;39.30;;;;;;5067252;28;20028;-66
2022/08/12 14:23:16;;;;;;;3.58;1.25;;;33.50;39.50;;;;;;5066407;28;20028;-66
2022/08/12 14:25:42;;;;;;;5.20;1.38;;;33.50;39.10;;;;;;5075597;28;20035;-66
2022/08/12 14:28:10;;;;;;;5.40;1.38;;;33.70;40.00;;;;;;5078955;28;20095;-66
2022/08/12 14:31:01;;;;;;;4.30;1.48;;;34.60;39.20;;;;;;5073047;28;20021;-66
2022/08/12 14:33:47;;;;;;;2.70;1.15;;;35.00;38.10;;;;;;5078669;28;20029;-66
2022/08/12 14:36:19;;;;;;;2.70;1.20;;;35.20;38.50;;;;;;5061950;28;20029;-66
2022/08/12 14:38:45;;;;;;;6.40;1.20;;;35.70;38.50;;;;;;5058955;28;20029;-66
2022/08/12 14:41:13;;;;;;;2.70;1.38;;;35.30;37.80;;;;;;5057514;28;20104;-66
2022/08/12 14:43:40;;;;;;;2.63;1.20;;;33.70;38.80;;;;;;5058374;28;20118;-66
2022/08/12 14:46:07;;;;;;;3.80;1.48;;;31.60;40.90;;;;;;5058707;28;20404;-66